sensor_id;sensor_type;location;lat;lon;timestamp;P1;durP1;ratioP1;P2;durP2;ratioP2
23472;SDS011;11909;52.516;13.564;2023-03-03T00:00:52;23.70;;;14.80;;
23472;SDS011;11909;52.516;13.564;2023-03-03T00:03:21;26.48;;;15.30;;
23472;SDS011;11909;52.516;13.564;2023-03-03T00:05:50;28.95;;;15.98;;
23472;SDS011;11909;52.516;13.564;2023-03-03T00:08:20;25.23;;;15.20;;
23472;SDS011;11909;52.516;13.564;2023-03-03T00:10:48;26.83;;;16.42;;
23472;SDS011;11909;52.516;13.564;2023-03-03T00:13:18;26.85;;;16.45;;
23472;SDS011;11909;52.516;13.564;2023-03-03T00:15:49;25.53;;;14.90;;
23472;SDS011;11909;52.516;13.564;2023-03-03T00:18:20;28.05;;;15.05;;
23472;SDS011;11909;52.516;13.564;2023-03-03T00:20:53;25.67;;;14.63;;
23472;SDS011;11909;52.516;13.564;2023-03-03T00:23:24;28.13;;;15.30;;
23472;SDS011;11909;52.516;13.564;2023-03-03T00:25:57;29.17;;;16.05;;
23472;SDS011;11909;52.516;13.564;2023-03-03T00:28:27;30.02;;;16.23;;
23472;SDS011;11909;52.516;13.564;2023-03-03T00:30:58;26.92;;;15.20;;
23472;SDS011;11909;52.516;13.564;2023-03-03T00:33:29;27.98;;;16.45;;
23472;SDS011;11909;52.516;13.564;2023-03-03T00:36:05;33.00;;;16.80;;
23472;SDS011;11909;52.516;13.564;2023-03-03T00:38:48;31.97;;;17.37;;
23472;SDS011;11909;52.516;13.564;2023-03-03T00:41:17;31.33;;;16.95;;
23472;SDS011;11909;52.516;13.564;2023-03-03T00:43:49;31.02;;;16.67;;
23472;SDS011;11909;52.516;13.564;2023-03-03T00:46:19;32.03;;;16.67;;
23472;SDS011;11909;52.516;13.564;2023-03-03T00:48:48;33.72;;;17.35;;
23472;SDS011;11909;52.516;13.564;2023-03-03T00:51:20;31.02;;;17.58;;
23472;SDS011;11909;52.516;13.564;2023-03-03T00:53:53;34.50;;;17.58;;
23472;SDS011;11909;52.516;13.564;2023-03-03T00:56:21;34.20;;;18.10;;
23472;SDS011;11909;52.516;13.564;2023-03-03T00:58:49;32.53;;;17.90;;
23472;SDS011;11909;52.516;13.564;2023-03-03T01:01:19;32.35;;;17.77;;
23472;SDS011;11909;52.516;13.564;2023-03-03T01:03:46;33.33;;;17.80;;
23472;SDS011;11909;52.516;13.564;2023-03-03T01:06:14;31.95;;;17.15;;
23472;SDS011;11909;52.516;13.564;2023-03-03T01:08:42;32.33;;;17.38;;
23472;SDS011;11909;52.516;13.564;2023-03-03T01:11:10;35.53;;;18.23;;
23472;SDS011;11909;52.516;13.564;2023-03-03T01:13:41;36.28;;;19.42;;
23472;SDS011;11909;52.516;13.564;2023-03-03T01:16:13;33.55;;;18.85;;
23472;SDS011;11909;52.516;13.564;2023-03-03T01:18:42;36.08;;;19.52;;
23472;SDS011;11909;52.516;13.564;2023-03-03T01:21:10;35.08;;;18.95;;
23472;SDS011;11909;52.516;13.564;2023-03-03T01:23:38;33.63;;;18.48;;
23472;SDS011;11909;52.516;13.564;2023-03-03T01:26:06;40.03;;;19.88;;
23472;SDS011;11909;52.516;13.564;2023-03-03T01:28:34;38.03;;;20.23;;
23472;SDS011;11909;52.516;13.564;2023-03-03T01:31:02;34.03;;;18.25;;
23472;SDS011;11909;52.516;13.564;2023-03-03T01:33:31;35.60;;;19.77;;
23472;SDS011;11909;52.516;13.564;2023-03-03T01:36:01;38.30;;;19.38;;
23472;SDS011;11909;52.516;13.564;2023-03-03T01:38:29;33.22;;;17.73;;
23472;SDS011;11909;52.516;13.564;2023-03-03T01:40:58;34.03;;;17.92;;
23472;SDS011;11909;52.516;13.564;2023-03-03T01:43:26;36.97;;;19.98;;
23472;SDS011;11909;52.516;13.564;2023-03-03T01:48:53;31.38;;;17.60;;
23472;SDS011;11909;52.516;13.564;2023-03-03T01:51:30;33.70;;;18.63;;
23472;SDS011;11909;52.516;13.564;2023-03-03T01:54:00;33.47;;;19.08;;
23472;SDS011;11909;52.516;13.564;2023-03-03T01:56:31;35.88;;;18.58;;
23472;SDS011;11909;52.516;13.564;2023-03-03T01:58:59;36.65;;;18.25;;
23472;SDS011;11909;52.516;13.564;2023-03-03T02:01:30;37.08;;;18.80;;
23472;SDS011;11909;52.516;13.564;2023-03-03T02:03:59;36.88;;;20.05;;
23472;SDS011;11909;52.516;13.564;2023-03-03T02:06:29;34.63;;;18.77;;
23472;SDS011;11909;52.516;13.564;2023-03-03T02:09:02;38.40;;;20.85;;
23472;SDS011;11909;52.516;13.564;2023-03-03T02:11:34;37.70;;;19.40;;
23472;SDS011;11909;52.516;13.564;2023-03-03T02:14:03;37.72;;;20.00;;
23472;SDS011;11909;52.516;13.564;2023-03-03T02:16:31;35.65;;;19.75;;
23472;SDS011;11909;52.516;13.564;2023-03-03T02:18:59;40.72;;;21.25;;
23472;SDS011;11909;52.516;13.564;2023-03-03T02:21:27;39.28;;;20.35;;
23472;SDS011;11909;52.516;13.564;2023-03-03T02:23:57;39.38;;;20.15;;
23472;SDS011;11909;52.516;13.564;2023-03-03T02:26:31;42.42;;;22.52;;
23472;SDS011;11909;52.516;13.564;2023-03-03T02:29:02;34.80;;;19.35;;
23472;SDS011;11909;52.516;13.564;2023-03-03T02:31:31;42.20;;;21.48;;
23472;SDS011;11909;52.516;13.564;2023-03-03T02:33:59;38.60;;;20.35;;
23472;SDS011;11909;52.516;13.564;2023-03-03T02:36:27;37.28;;;19.98;;
23472;SDS011;11909;52.516;13.564;2023-03-03T02:38:58;36.17;;;19.95;;
23472;SDS011;11909;52.516;13.564;2023-03-03T02:41:33;35.38;;;20.05;;
23472;SDS011;11909;52.516;13.564;2023-03-03T02:44:06;37.97;;;21.33;;
23472;SDS011;11909;52.516;13.564;2023-03-03T02:46:35;38.93;;;20.53;;
23472;SDS011;11909;52.516;13.564;2023-03-03T02:49:05;40.63;;;20.05;;
23472;SDS011;11909;52.516;13.564;2023-03-03T02:51:34;35.77;;;19.90;;
23472;SDS011;11909;52.516;13.564;2023-03-03T02:54:03;37.35;;;20.42;;
23472;SDS011;11909;52.516;13.564;2023-03-03T02:56:32;36.88;;;19.35;;
23472;SDS011;11909;52.516;13.564;2023-03-03T02:59:00;40.25;;;21.23;;
23472;SDS011;11909;52.516;13.564;2023-03-03T03:01:29;37.60;;;19.42;;
23472;SDS011;11909;52.516;13.564;2023-03-03T03:04:03;39.88;;;20.90;;
23472;SDS011;11909;52.516;13.564;2023-03-03T03:06:34;35.10;;;19.23;;
23472;SDS011;11909;52.516;13.564;2023-03-03T03:09:02;39.08;;;20.65;;
23472;SDS011;11909;52.516;13.564;2023-03-03T03:11:30;35.80;;;19.23;;
23472;SDS011;11909;52.516;13.564;2023-03-03T03:13:59;35.75;;;19.73;;
23472;SDS011;11909;52.516;13.564;2023-03-03T03:16:27;35.22;;;19.35;;
23472;SDS011;11909;52.516;13.564;2023-03-03T03:18:55;34.40;;;18.30;;
23472;SDS011;11909;52.516;13.564;2023-03-03T03:21:22;33.45;;;17.92;;
23472;SDS011;11909;52.516;13.564;2023-03-03T03:23:50;31.58;;;17.77;;
23472;SDS011;11909;52.516;13.564;2023-03-03T03:26:18;30.70;;;16.85;;
23472;SDS011;11909;52.516;13.564;2023-03-03T03:28:46;26.63;;;15.70;;
23472;SDS011;11909;52.516;13.564;2023-03-03T03:31:16;31.77;;;17.73;;
23472;SDS011;11909;52.516;13.564;2023-03-03T03:33:44;34.22;;;18.63;;
23472;SDS011;11909;52.516;13.564;2023-03-03T03:36:12;32.92;;;18.17;;
23472;SDS011;11909;52.516;13.564;2023-03-03T03:38:40;35.45;;;18.42;;
23472;SDS011;11909;52.516;13.564;2023-03-03T03:41:08;39.30;;;19.73;;
23472;SDS011;11909;52.516;13.564;2023-03-03T03:43:37;39.40;;;20.33;;
23472;SDS011;11909;52.516;13.564;2023-03-03T03:46:05;38.03;;;20.17;;
23472;SDS011;11909;52.516;13.564;2023-03-03T03:48:34;42.75;;;21.73;;
23472;SDS011;11909;52.516;13.564;2023-03-03T03:51:02;39.20;;;21.55;;
23472;SDS011;11909;52.516;13.564;2023-03-03T03:53:30;39.20;;;21.15;;
23472;SDS011;11909;52.516;13.564;2023-03-03T03:55:58;39.75;;;22.25;;
23472;SDS011;11909;52.516;13.564;2023-03-03T03:58:26;42.78;;;22.10;;
23472;SDS011;11909;52.516;13.564;2023-03-03T04:00:53;39.65;;;20.20;;
23472;SDS011;11909;52.516;13.564;2023-03-03T04:03:21;36.58;;;19.20;;
23472;SDS011;11909;52.516;13.564;2023-03-03T04:05:52;35.92;;;19.02;;
23472;SDS011;11909;52.516;13.564;2023-03-03T04:08:20;37.25;;;20.02;;
23472;SDS011;11909;52.516;13.564;2023-03-03T04:10:48;34.20;;;17.80;;
23472;SDS011;11909;52.516;13.564;2023-03-03T04:13:15;30.20;;;16.73;;
23472;SDS011;11909;52.516;13.564;2023-03-03T04:15:43;30.45;;;16.83;;
23472;SDS011;11909;52.516;13.564;2023-03-03T04:18:11;25.95;;;15.85;;
23472;SDS011;11909;52.516;13.564;2023-03-03T04:20:38;24.73;;;14.63;;
23472;SDS011;11909;52.516;13.564;2023-03-03T04:23:08;30.85;;;17.10;;
23472;SDS011;11909;52.516;13.564;2023-03-03T04:25:35;27.65;;;15.95;;
23472;SDS011;11909;52.516;13.564;2023-03-03T04:28:03;29.98;;;16.42;;
23472;SDS011;11909;52.516;13.564;2023-03-03T04:30:31;35.45;;;18.80;;
23472;SDS011;11909;52.516;13.564;2023-03-03T04:32:59;34.53;;;19.48;;
23472;SDS011;11909;52.516;13.564;2023-03-03T04:35:27;31.58;;;17.70;;
23472;SDS011;11909;52.516;13.564;2023-03-03T04:37:54;41.05;;;20.80;;
23472;SDS011;11909;52.516;13.564;2023-03-03T04:40:23;37.55;;;21.00;;
23472;SDS011;11909;52.516;13.564;2023-03-03T04:42:51;39.35;;;21.55;;
23472;SDS011;11909;52.516;13.564;2023-03-03T04:45:19;40.45;;;20.45;;
23472;SDS011;11909;52.516;13.564;2023-03-03T04:47:46;35.00;;;19.05;;
23472;SDS011;11909;52.516;13.564;2023-03-03T04:50:14;36.13;;;18.30;;
23472;SDS011;11909;52.516;13.564;2023-03-03T04:52:42;32.78;;;18.58;;
23472;SDS011;11909;52.516;13.564;2023-03-03T04:55:10;36.15;;;18.77;;
23472;SDS011;11909;52.516;13.564;2023-03-03T04:57:39;35.75;;;18.58;;
23472;SDS011;11909;52.516;13.564;2023-03-03T05:00:07;33.13;;;17.95;;
23472;SDS011;11909;52.516;13.564;2023-03-03T05:02:35;32.88;;;18.15;;
23472;SDS011;11909;52.516;13.564;2023-03-03T05:05:03;40.20;;;19.67;;
23472;SDS011;11909;52.516;13.564;2023-03-03T05:07:31;38.97;;;19.58;;
23472;SDS011;11909;52.516;13.564;2023-03-03T05:09:59;44.45;;;21.60;;
23472;SDS011;11909;52.516;13.564;2023-03-03T05:12:27;32.25;;;18.33;;
23472;SDS011;11909;52.516;13.564;2023-03-03T05:14:56;43.53;;;20.60;;
23472;SDS011;11909;52.516;13.564;2023-03-03T05:17:24;37.45;;;19.75;;
23472;SDS011;11909;52.516;13.564;2023-03-03T05:19:51;35.13;;;19.27;;
23472;SDS011;11909;52.516;13.564;2023-03-03T05:22:19;36.47;;;19.20;;
23472;SDS011;11909;52.516;13.564;2023-03-03T05:24:47;36.05;;;20.02;;
23472;SDS011;11909;52.516;13.564;2023-03-03T05:27:14;41.67;;;22.23;;
23472;SDS011;11909;52.516;13.564;2023-03-03T05:29:42;42.38;;;22.25;;
23472;SDS011;11909;52.516;13.564;2023-03-03T05:32:11;44.28;;;22.95;;
23472;SDS011;11909;52.516;13.564;2023-03-03T05:34:39;39.08;;;21.45;;
23472;SDS011;11909;52.516;13.564;2023-03-03T05:37:07;41.45;;;20.65;;
23472;SDS011;11909;52.516;13.564;2023-03-03T05:39:35;45.00;;;19.85;;
23472;SDS011;11909;52.516;13.564;2023-03-03T05:42:03;39.00;;;20.90;;
23472;SDS011;11909;52.516;13.564;2023-03-03T05:44:31;38.83;;;20.10;;
23472;SDS011;11909;52.516;13.564;2023-03-03T05:46:58;43.72;;;21.35;;
23472;SDS011;11909;52.516;13.564;2023-03-03T05:49:27;37.53;;;19.90;;
23472;SDS011;11909;52.516;13.564;2023-03-03T05:51:55;33.53;;;17.58;;
23472;SDS011;11909;52.516;13.564;2023-03-03T05:54:24;32.70;;;18.00;;
23472;SDS011;11909;52.516;13.564;2023-03-03T05:56:52;39.15;;;20.15;;
23472;SDS011;11909;52.516;13.564;2023-03-03T05:59:19;41.40;;;20.92;;
23472;SDS011;11909;52.516;13.564;2023-03-03T06:01:47;39.45;;;20.23;;
23472;SDS011;11909;52.516;13.564;2023-03-03T06:04:15;35.67;;;19.10;;
23472;SDS011;11909;52.516;13.564;2023-03-03T06:06:44;35.15;;;18.38;;
23472;SDS011;11909;52.516;13.564;2023-03-03T06:09:12;31.33;;;17.40;;
23472;SDS011;11909;52.516;13.564;2023-03-03T06:11:39;32.10;;;17.77;;
23472;SDS011;11909;52.516;13.564;2023-03-03T06:14:07;26.35;;;16.35;;
23472;SDS011;11909;52.516;13.564;2023-03-03T06:16:35;25.52;;;14.02;;
23472;SDS011;11909;52.516;13.564;2023-03-03T06:19:03;24.40;;;14.73;;
23472;SDS011;11909;52.516;13.564;2023-03-03T06:21:31;25.65;;;14.35;;
23472;SDS011;11909;52.516;13.564;2023-03-03T06:24:00;22.85;;;13.95;;
23472;SDS011;11909;52.516;13.564;2023-03-03T06:26:27;27.80;;;15.68;;
23472;SDS011;11909;52.516;13.564;2023-03-03T06:28:55;27.90;;;16.05;;
23472;SDS011;11909;52.516;13.564;2023-03-03T06:31:23;30.25;;;15.75;;
23472;SDS011;11909;52.516;13.564;2023-03-03T06:33:51;27.83;;;15.77;;
23472;SDS011;11909;52.516;13.564;2023-03-03T06:36:19;30.17;;;16.05;;
23472;SDS011;11909;52.516;13.564;2023-03-03T06:38:47;26.67;;;15.38;;
23472;SDS011;11909;52.516;13.564;2023-03-03T06:41:16;30.10;;;15.98;;
23472;SDS011;11909;52.516;13.564;2023-03-03T06:43:44;28.67;;;15.45;;
23472;SDS011;11909;52.516;13.564;2023-03-03T06:46:11;28.92;;;16.52;;
23472;SDS011;11909;52.516;13.564;2023-03-03T06:48:39;32.58;;;16.98;;
23472;SDS011;11909;52.516;13.564;2023-03-03T06:51:18;31.52;;;16.88;;
23472;SDS011;11909;52.516;13.564;2023-03-03T06:53:50;31.00;;;17.33;;
23472;SDS011;11909;52.516;13.564;2023-03-03T06:56:21;29.10;;;17.13;;
23472;SDS011;11909;52.516;13.564;2023-03-03T06:58:52;27.58;;;15.25;;
23472;SDS011;11909;52.516;13.564;2023-03-03T07:03:48;29.42;;;16.58;;
23472;SDS011;11909;52.516;13.564;2023-03-03T07:06:19;31.88;;;17.02;;
23472;SDS011;11909;52.516;13.564;2023-03-03T07:08:49;29.95;;;17.05;;
23472;SDS011;11909;52.516;13.564;2023-03-03T07:11:18;32.60;;;17.80;;
23472;SDS011;11909;52.516;13.564;2023-03-03T07:13:49;29.55;;;16.42;;
23472;SDS011;11909;52.516;13.564;2023-03-03T07:16:19;24.40;;;14.18;;
23472;SDS011;11909;52.516;13.564;2023-03-03T07:18:53;28.45;;;15.45;;
23472;SDS011;11909;52.516;13.564;2023-03-03T07:21:22;26.40;;;14.38;;
23472;SDS011;11909;52.516;13.564;2023-03-03T07:23:52;26.10;;;12.98;;
23472;SDS011;11909;52.516;13.564;2023-03-03T07:26:21;32.38;;;16.27;;
23472;SDS011;11909;52.516;13.564;2023-03-03T07:28:56;39.13;;;18.15;;
23472;SDS011;11909;52.516;13.564;2023-03-03T07:31:27;27.88;;;15.52;;
23472;SDS011;11909;52.516;13.564;2023-03-03T07:33:58;25.15;;;13.63;;
23472;SDS011;11909;52.516;13.564;2023-03-03T07:36:27;21.13;;;12.52;;
23472;SDS011;11909;52.516;13.564;2023-03-03T07:38:57;20.95;;;13.38;;
23472;SDS011;11909;52.516;13.564;2023-03-03T07:41:27;22.30;;;13.07;;
23472;SDS011;11909;52.516;13.564;2023-03-03T07:44:00;22.40;;;13.30;;
23472;SDS011;11909;52.516;13.564;2023-03-03T07:46:34;22.30;;;13.32;;
23472;SDS011;11909;52.516;13.564;2023-03-03T07:49:11;21.73;;;12.77;;
23472;SDS011;11909;52.516;13.564;2023-03-03T07:51:48;22.80;;;12.65;;
23472;SDS011;11909;52.516;13.564;2023-03-03T07:54:26;25.60;;;14.13;;
23472;SDS011;11909;52.516;13.564;2023-03-03T07:56:56;28.65;;;14.43;;
23472;SDS011;11909;52.516;13.564;2023-03-03T07:59:30;29.63;;;15.73;;
23472;SDS011;11909;52.516;13.564;2023-03-03T08:02:03;41.28;;;16.02;;
23472;SDS011;11909;52.516;13.564;2023-03-03T08:04:55;27.77;;;15.63;;
23472;SDS011;11909;52.516;13.564;2023-03-03T08:07:23;27.92;;;15.38;;
23472;SDS011;11909;52.516;13.564;2023-03-03T08:09:53;32.25;;;16.77;;
23472;SDS011;11909;52.516;13.564;2023-03-03T08:12:32;32.75;;;17.05;;
23472;SDS011;11909;52.516;13.564;2023-03-03T08:17:57;40.67;;;20.75;;
23472;SDS011;11909;52.516;13.564;2023-03-03T08:20:38;41.80;;;21.73;;
23472;SDS011;11909;52.516;13.564;2023-03-03T08:23:10;38.80;;;20.27;;
23472;SDS011;11909;52.516;13.564;2023-03-03T08:25:38;40.53;;;19.60;;
23472;SDS011;11909;52.516;13.564;2023-03-03T08:28:07;37.33;;;19.65;;
23472;SDS011;11909;52.516;13.564;2023-03-03T08:30:37;41.72;;;20.42;;
23472;SDS011;11909;52.516;13.564;2023-03-03T08:33:05;39.33;;;19.40;;
23472;SDS011;11909;52.516;13.564;2023-03-03T08:35:33;49.92;;;22.65;;
23472;SDS011;11909;52.516;13.564;2023-03-03T08:38:01;45.83;;;22.38;;
23472;SDS011;11909;52.516;13.564;2023-03-03T08:40:29;47.08;;;23.38;;
23472;SDS011;11909;52.516;13.564;2023-03-03T08:42:57;44.25;;;21.75;;
23472;SDS011;11909;52.516;13.564;2023-03-03T08:45:24;41.42;;;20.35;;
23472;SDS011;11909;52.516;13.564;2023-03-03T08:47:54;37.50;;;20.00;;
23472;SDS011;11909;52.516;13.564;2023-03-03T08:50:22;43.30;;;21.73;;
23472;SDS011;11909;52.516;13.564;2023-03-03T08:52:50;48.55;;;23.48;;
23472;SDS011;11909;52.516;13.564;2023-03-03T08:55:18;49.53;;;23.45;;
23472;SDS011;11909;52.516;13.564;2023-03-03T08:57:46;52.10;;;23.70;;
23472;SDS011;11909;52.516;13.564;2023-03-03T09:00:15;42.88;;;21.67;;
23472;SDS011;11909;52.516;13.564;2023-03-03T09:02:43;118.63;;;55.63;;
23472;SDS011;11909;52.516;13.564;2023-03-03T09:05:13;42.80;;;21.50;;
23472;SDS011;11909;52.516;13.564;2023-03-03T09:07:41;46.77;;;22.03;;
23472;SDS011;11909;52.516;13.564;2023-03-03T09:10:12;46.25;;;23.67;;
23472;SDS011;11909;52.516;13.564;2023-03-03T09:12:42;49.47;;;23.60;;
23472;SDS011;11909;52.516;13.564;2023-03-03T09:15:15;44.75;;;22.92;;
23472;SDS011;11909;52.516;13.564;2023-03-03T09:17:46;42.72;;;22.08;;
23472;SDS011;11909;52.516;13.564;2023-03-03T09:20:30;51.60;;;24.33;;
23472;SDS011;11909;52.516;13.564;2023-03-03T09:23:24;49.28;;;24.40;;
23472;SDS011;11909;52.516;13.564;2023-03-03T09:26:02;45.95;;;23.45;;
23472;SDS011;11909;52.516;13.564;2023-03-03T09:28:48;50.45;;;23.48;;
23472;SDS011;11909;52.516;13.564;2023-03-03T09:31:20;52.58;;;25.17;;
23472;SDS011;11909;52.516;13.564;2023-03-03T09:33:51;49.00;;;24.27;;
23472;SDS011;11909;52.516;13.564;2023-03-03T09:36:25;51.97;;;25.70;;
23472;SDS011;11909;52.516;13.564;2023-03-03T09:38:54;52.22;;;25.02;;
23472;SDS011;11909;52.516;13.564;2023-03-03T09:41:36;47.53;;;24.60;;
23472;SDS011;11909;52.516;13.564;2023-03-03T09:44:21;44.50;;;24.30;;
23472;SDS011;11909;52.516;13.564;2023-03-03T09:47:10;45.83;;;24.52;;
23472;SDS011;11909;52.516;13.564;2023-03-03T09:49:51;64.70;;;31.63;;
23472;SDS011;11909;52.516;13.564;2023-03-03T09:52:35;46.72;;;24.77;;
23472;SDS011;11909;52.516;13.564;2023-03-03T09:55:10;48.85;;;24.38;;
23472;SDS011;11909;52.516;13.564;2023-03-03T09:57:54;48.75;;;23.55;;
23472;SDS011;11909;52.516;13.564;2023-03-03T10:00:42;46.33;;;24.20;;
23472;SDS011;11909;52.516;13.564;2023-03-03T10:06:19;46.55;;;25.67;;
23472;SDS011;11909;52.516;13.564;2023-03-03T10:11:52;45.65;;;25.67;;
23472;SDS011;11909;52.516;13.564;2023-03-03T10:17:24;48.65;;;28.45;;
23472;SDS011;11909;52.516;13.564;2023-03-03T10:20:11;53.63;;;26.70;;
23472;SDS011;11909;52.516;13.564;2023-03-03T10:22:51;48.83;;;25.60;;
23472;SDS011;11909;52.516;13.564;2023-03-03T10:25:25;53.97;;;25.95;;
23472;SDS011;11909;52.516;13.564;2023-03-03T10:28:05;50.05;;;25.65;;
23472;SDS011;11909;52.516;13.564;2023-03-03T10:31:02;47.50;;;24.33;;
23472;SDS011;11909;52.516;13.564;2023-03-03T10:33:45;54.50;;;27.58;;
23472;SDS011;11909;52.516;13.564;2023-03-03T10:36:22;52.78;;;29.55;;
23472;SDS011;11909;52.516;13.564;2023-03-03T10:39:08;56.22;;;30.88;;
23472;SDS011;11909;52.516;13.564;2023-03-03T10:41:53;59.38;;;30.92;;
23472;SDS011;11909;52.516;13.564;2023-03-03T10:44:43;51.78;;;28.13;;
23472;SDS011;11909;52.516;13.564;2023-03-03T10:47:27;53.50;;;29.27;;
23472;SDS011;11909;52.516;13.564;2023-03-03T10:50:09;55.75;;;30.48;;
23472;SDS011;11909;52.516;13.564;2023-03-03T10:52:43;59.85;;;30.83;;
23472;SDS011;11909;52.516;13.564;2023-03-03T10:55:20;63.22;;;32.63;;
23472;SDS011;11909;52.516;13.564;2023-03-03T10:57:59;54.13;;;30.42;;
23472;SDS011;11909;52.516;13.564;2023-03-03T11:00:37;54.10;;;31.98;;
23472;SDS011;11909;52.516;13.564;2023-03-03T11:03:29;57.45;;;31.88;;
23472;SDS011;11909;52.516;13.564;2023-03-03T11:06:17;51.85;;;30.65;;
23472;SDS011;11909;52.516;13.564;2023-03-03T11:08:51;54.22;;;31.80;;
23472;SDS011;11909;52.516;13.564;2023-03-03T11:11:24;56.85;;;31.10;;
23472;SDS011;11909;52.516;13.564;2023-03-03T11:14:04;59.28;;;32.50;;
23472;SDS011;11909;52.516;13.564;2023-03-03T11:16:40;59.40;;;32.22;;
23472;SDS011;11909;52.516;13.564;2023-03-03T11:19:29;57.75;;;32.22;;
23472;SDS011;11909;52.516;13.564;2023-03-03T11:22:10;47.35;;;30.75;;
23472;SDS011;11909;52.516;13.564;2023-03-03T11:24:54;49.22;;;30.27;;
23472;SDS011;11909;52.516;13.564;2023-03-03T11:30:35;85.93;;;47.13;;
23472;SDS011;11909;52.516;13.564;2023-03-03T11:35:46;55.28;;;31.45;;
23472;SDS011;11909;52.516;13.564;2023-03-03T11:38:27;46.45;;;28.55;;
23472;SDS011;11909;52.516;13.564;2023-03-03T11:41:07;42.58;;;25.45;;
23472;SDS011;11909;52.516;13.564;2023-03-03T11:43:43;41.22;;;26.25;;
23472;SDS011;11909;52.516;13.564;2023-03-03T11:46:16;44.50;;;27.90;;
23472;SDS011;11909;52.516;13.564;2023-03-03T11:48:49;48.63;;;27.88;;
23472;SDS011;11909;52.516;13.564;2023-03-03T11:51:26;49.92;;;29.13;;
23472;SDS011;11909;52.516;13.564;2023-03-03T11:54:02;48.00;;;28.52;;
23472;SDS011;11909;52.516;13.564;2023-03-03T11:56:38;50.60;;;30.88;;
23472;SDS011;11909;52.516;13.564;2023-03-03T11:59:19;54.78;;;32.05;;
23472;SDS011;11909;52.516;13.564;2023-03-03T12:02:04;54.38;;;33.08;;
23472;SDS011;11909;52.516;13.564;2023-03-03T12:04:51;64.28;;;34.13;;
23472;SDS011;11909;52.516;13.564;2023-03-03T12:07:24;51.00;;;27.20;;
23472;SDS011;11909;52.516;13.564;2023-03-03T12:10:06;42.30;;;23.63;;
23472;SDS011;11909;52.516;13.564;2023-03-03T12:12:44;44.10;;;24.73;;
23472;SDS011;11909;52.516;13.564;2023-03-03T12:15:22;43.55;;;24.20;;
23472;SDS011;11909;52.516;13.564;2023-03-03T12:18:03;43.38;;;25.23;;
23472;SDS011;11909;52.516;13.564;2023-03-03T12:20:43;42.22;;;23.98;;
23472;SDS011;11909;52.516;13.564;2023-03-03T12:23:19;42.38;;;24.48;;
23472;SDS011;11909;52.516;13.564;2023-03-03T12:26:04;52.33;;;26.95;;
23472;SDS011;11909;52.516;13.564;2023-03-03T12:28:39;51.25;;;29.30;;
23472;SDS011;11909;52.516;13.564;2023-03-03T12:31:17;52.95;;;30.73;;
23472;SDS011;11909;52.516;13.564;2023-03-03T12:33:58;110.00;;;55.15;;
23472;SDS011;11909;52.516;13.564;2023-03-03T12:36:35;64.60;;;36.97;;
23472;SDS011;11909;52.516;13.564;2023-03-03T12:39:17;48.05;;;28.33;;
23472;SDS011;11909;52.516;13.564;2023-03-03T12:42:02;51.60;;;28.90;;
23472;SDS011;11909;52.516;13.564;2023-03-03T12:44:39;55.17;;;30.48;;
23472;SDS011;11909;52.516;13.564;2023-03-03T12:47:14;57.42;;;31.25;;
23472;SDS011;11909;52.516;13.564;2023-03-03T12:49:52;53.55;;;30.13;;
23472;SDS011;11909;52.516;13.564;2023-03-03T12:52:36;55.55;;;29.23;;
23472;SDS011;11909;52.516;13.564;2023-03-03T12:55:15;54.28;;;31.63;;
23472;SDS011;11909;52.516;13.564;2023-03-03T12:57:53;55.75;;;32.67;;
23472;SDS011;11909;52.516;13.564;2023-03-03T13:00:34;62.33;;;34.58;;
23472;SDS011;11909;52.516;13.564;2023-03-03T13:03:17;61.20;;;35.75;;
23472;SDS011;11909;52.516;13.564;2023-03-03T13:06:24;60.25;;;33.83;;
23472;SDS011;11909;52.516;13.564;2023-03-03T13:09:00;54.22;;;32.47;;
23472;SDS011;11909;52.516;13.564;2023-03-03T13:11:45;54.75;;;30.30;;
23472;SDS011;11909;52.516;13.564;2023-03-03T13:14:24;55.95;;;32.40;;
23472;SDS011;11909;52.516;13.564;2023-03-03T13:17:03;58.05;;;32.28;;
23472;SDS011;11909;52.516;13.564;2023-03-03T13:19:43;57.40;;;31.70;;
23472;SDS011;11909;52.516;13.564;2023-03-03T13:22:17;61.38;;;34.40;;
23472;SDS011;11909;52.516;13.564;2023-03-03T13:24:57;68.10;;;37.45;;
23472;SDS011;11909;52.516;13.564;2023-03-03T13:27:31;65.60;;;37.65;;
23472;SDS011;11909;52.516;13.564;2023-03-03T13:30:08;65.30;;;37.05;;
23472;SDS011;11909;52.516;13.564;2023-03-03T13:32:43;57.85;;;33.75;;
23472;SDS011;11909;52.516;13.564;2023-03-03T13:35:19;57.80;;;33.22;;
23472;SDS011;11909;52.516;13.564;2023-03-03T13:37:59;57.97;;;32.50;;
23472;SDS011;11909;52.516;13.564;2023-03-03T13:40:35;60.15;;;33.65;;
23472;SDS011;11909;52.516;13.564;2023-03-03T13:43:09;64.18;;;34.30;;
23472;SDS011;11909;52.516;13.564;2023-03-03T13:45:48;61.92;;;34.20;;
23472;SDS011;11909;52.516;13.564;2023-03-03T13:48:28;59.78;;;33.30;;
23472;SDS011;11909;52.516;13.564;2023-03-03T13:51:07;54.42;;;32.42;;
23472;SDS011;11909;52.516;13.564;2023-03-03T13:53:43;57.03;;;33.17;;
23472;SDS011;11909;52.516;13.564;2023-03-03T13:56:32;62.38;;;35.03;;
23472;SDS011;11909;52.516;13.564;2023-03-03T13:59:11;60.20;;;34.92;;
23472;SDS011;11909;52.516;13.564;2023-03-03T14:01:50;61.08;;;34.15;;
23472;SDS011;11909;52.516;13.564;2023-03-03T14:04:28;68.80;;;33.88;;
23472;SDS011;11909;52.516;13.564;2023-03-03T14:07:06;59.72;;;34.28;;
23472;SDS011;11909;52.516;13.564;2023-03-03T14:09:53;55.20;;;29.85;;
23472;SDS011;11909;52.516;13.564;2023-03-03T14:12:32;60.60;;;30.55;;
23472;SDS011;11909;52.516;13.564;2023-03-03T14:15:10;54.65;;;29.95;;
23472;SDS011;11909;52.516;13.564;2023-03-03T14:17:53;46.60;;;27.52;;
23472;SDS011;11909;52.516;13.564;2023-03-03T14:20:29;38.42;;;22.67;;
23472;SDS011;11909;52.516;13.564;2023-03-03T14:23:01;42.42;;;22.70;;
23472;SDS011;11909;52.516;13.564;2023-03-03T14:25:51;47.58;;;26.25;;
23472;SDS011;11909;52.516;13.564;2023-03-03T14:28:21;46.70;;;26.65;;
23472;SDS011;11909;52.516;13.564;2023-03-03T14:30:50;45.70;;;25.48;;
23472;SDS011;11909;52.516;13.564;2023-03-03T14:33:21;44.42;;;25.25;;
23472;SDS011;11909;52.516;13.564;2023-03-03T14:36:11;52.05;;;27.75;;
23472;SDS011;11909;52.516;13.564;2023-03-03T14:38:45;51.92;;;26.95;;
23472;SDS011;11909;52.516;13.564;2023-03-03T14:41:20;54.47;;;29.58;;
23472;SDS011;11909;52.516;13.564;2023-03-03T14:44:00;45.03;;;25.60;;
23472;SDS011;11909;52.516;13.564;2023-03-03T14:46:51;53.22;;;28.27;;
23472;SDS011;11909;52.516;13.564;2023-03-03T14:49:29;52.55;;;28.75;;
23472;SDS011;11909;52.516;13.564;2023-03-03T14:52:00;54.00;;;29.27;;
23472;SDS011;11909;52.516;13.564;2023-03-03T14:54:33;49.65;;;28.80;;
23472;SDS011;11909;52.516;13.564;2023-03-03T14:57:10;53.85;;;31.13;;
23472;SDS011;11909;52.516;13.564;2023-03-03T14:59:53;52.03;;;32.05;;
23472;SDS011;11909;52.516;13.564;2023-03-03T15:02:30;52.55;;;31.05;;
23472;SDS011;11909;52.516;13.564;2023-03-03T15:05:10;55.72;;;31.98;;